Time;durP1;ratioP1;P1;durP2;ratioP2;P2;SDS_P1;SDS_P2;PMS_P1;PMS_P2;Temp;Humidity;BMP_temperature;BMP_pressure;BME280_temperature;BME280_humidity;BME280_pressure;Samples;Min_cycle;Max_cycle;Signal;HPM_P1;HPM_P2
2023/07/29 00:01:01;;;;;;;1.40;0.50;;;;;;;20.04;70.48;99575.55;84017;282;136258;-63
2023/07/29 00:03:03;;;;;;;2.60;2.20;;;;;;;20.01;70.91;99576.09;84228;281;22562;-61
2023/07/29 00:05:05;;;;;;;2.10;1.50;;;;;;;19.99;72.19;99570.67;84045;282;137299;-62
2023/07/29 00:07:08;;;;;;;2.80;1.80;;;;;;;20.00;71.68;99569.43;84180;282;22673;-57
2023/07/29 00:09:10;;;;;;;5.70;1.10;;;;;;;19.98;71.25;99562.66;83991;282;137682;-62
2023/07/29 00:11:12;;;;;;;2.00;1.50;;;;;;;19.95;71.45;99566.84;84095;282;24097;-58
2023/07/29 00:13:13;;;;;;;2.10;1.50;;;;;;;19.93;72.82;99566.23;83996;282;136223;-62
2023/07/29 00:15:15;;;;;;;2.50;1.60;;;;;;;19.95;72.15;99569.75;84147;282;22568;-62
2023/07/29 00:17:17;;;;;;;3.20;3.00;;;;;;;19.98;72.91;99573.55;84198;282;136263;-63
2023/07/29 00:19:20;;;;;;;2.80;1.80;;;;;;;20.03;74.14;99572.73;84325;281;22547;-62
2023/07/29 00:21:22;;;;;;;2.80;2.50;;;;;;;20.11;71.89;99575.08;84193;282;138188;-62
2023/07/29 00:23:24;;;;;;;4.00;1.40;;;;;;;20.12;73.31;99573.45;84234;281;25295;-61
2023/07/29 00:25:26;;;;;;;1.90;1.60;;;;;;;20.13;72.89;99571.39;84027;281;136346;-60
2023/07/29 00:27:28;;;;;;;3.30;1.50;;;;;;;20.12;72.12;99570.80;84297;281;22579;-62
2023/07/29 00:29:29;;;;;;;2.40;2.20;;;;;;;20.08;72.74;99570.46;83831;283;137934;-61
2023/07/29 00:31:31;;;;;;;2.70;1.10;;;;;;;20.08;73.21;99576.20;84126;281;26399;-63
2023/07/29 00:33:33;;;;;;;1.40;1.30;;;;;;;20.08;73.54;99577.34;84237;282;136289;-60
2023/07/29 00:35:35;;;;;;;1.90;0.90;;;;;;;20.11;73.69;99575.77;84234;284;24141;-64
2023/07/29 00:37:37;;;;;;;2.40;1.30;;;;;;;20.14;73.42;99575.73;84174;282;137346;-60
2023/07/29 00:39:39;;;;;;;0.90;0.90;;;;;;;20.13;73.91;99570.74;84259;282;22599;-64
2023/07/29 00:41:43;;;;;;;1.30;1.20;;;;;;;20.08;74.00;99571.77;84062;283;136102;-62
2023/07/29 00:43:45;;;;;;;2.10;1.80;;;;;;;20.01;74.95;99573.01;84197;281;25177;-60
2023/07/29 00:45:47;;;;;;;2.30;1.60;;;;;;;19.98;75.53;99571.59;83952;283;136276;-61
2023/07/29 00:47:49;;;;;;;2.70;1.90;;;;;;;19.96;75.78;99568.73;84056;283;26337;-62
2023/07/29 00:49:51;;;;;;;1.60;1.10;;;;;;;19.94;75.76;99568.20;84093;282;136029;-60
2023/07/29 00:51:53;;;;;;;1.70;1.60;;;;;;;19.93;75.95;99569.39;84374;281;25167;-62
2023/07/29 00:53:55;;;;;;;1.80;1.20;;;;;;;19.86;76.66;99566.71;84113;282;135854;-60
2023/07/29 00:55:56;;;;;;;1.80;1.50;;;;;;;19.82;77.11;99569.95;84125;282;25339;-63
2023/07/29 00:57:58;;;;;;;1.20;1.10;;;;;;;19.80;77.55;99568.01;84132;283;138313;-62
2023/07/29 01:00:02;;;;;;;1.60;1.40;;;;;;;19.76;77.93;99570.38;84000;281;22807;-61
2023/07/29 01:02:05;;;;;;;1.40;1.10;;;;;;;19.73;78.25;99574.86;83982;282;137463;-63
2023/07/29 01:04:06;;;;;;;2.60;1.00;;;;;;;19.75;78.65;99573.83;84139;283;136908;-68
2023/07/29 01:06:32;;;;;;;2.90;1.60;;;;;;;19.73;78.77;99568.64;83943;283;22582;-60
2023/07/29 01:08:41;;;;;;;1.90;1.20;;;;;;;19.66;79.63;99565.46;83916;271;137984;-61
2023/07/29 01:11:14;;;;;;;2.20;1.10;;;;;;;19.64;79.82;99567.94;84242;281;25211;-61
2023/07/29 01:13:31;;;;;;;1.40;0.70;;;;;;;19.67;80.03;99565.41;84334;282;135082;-61
2023/07/29 01:15:42;;;;;;;1.30;1.10;;;;;;;19.64;80.29;99565.50;84352;282;22570;-61
2023/07/29 01:18:06;;;;;;;2.40;0.70;;;;;;;19.59;80.69;99564.14;84336;281;136179;-61
2023/07/29 01:20:15;;;;;;;1.10;0.90;;;;;;;19.59;81.24;99567.92;84327;281;137124;-60
2023/07/29 01:22:21;;;;;;;1.90;0.90;;;;;;;19.59;81.26;99563.02;84269;282;22575;-62
2023/07/29 01:24:23;;;;;;;3.40;0.70;;;;;;;19.60;81.39;99564.14;84082;283;136980;-61
2023/07/29 01:26:25;;;;;;;2.80;1.10;;;;;;;19.59;81.73;99566.04;84338;281;22577;-63
2023/07/29 01:28:27;;;;;;;0.80;0.60;;;;;;;19.58;81.67;99564.85;84292;281;137038;-61
2023/07/29 01:30:37;;;;;;;1.80;0.80;;;;;;;19.61;82.00;99567.40;84331;282;25133;-62
2023/07/29 01:32:51;;;;;;;1.60;0.70;;;;;;;19.61;81.69;99568.74;84130;283;137296;-60
2023/07/29 01:35:19;;;;;;;0.40;0.40;;;;;;;19.56;82.34;99570.69;83770;281;773352;-60
2023/07/29 01:37:27;;;;;;;1.30;0.30;;;;;;;19.50;82.81;99574.02;84281;282;136745;-60
2023/07/29 01:39:34;;;;;;;0.80;0.70;;;;;;;19.45;83.18;99572.39;84456;283;25356;-64
2023/07/29 01:41:36;;;;;;;1.40;0.90;;;;;;;19.41;83.54;99569.60;84262;282;136668;-61
2023/07/29 01:43:46;;;;;;;1.10;0.40;;;;;;;19.40;83.73;99571.82;84492;281;22645;-61
2023/07/29 01:45:48;;;;;;;0.50;0.50;;;;;;;19.40;84.04;99571.77;84194;283;136581;-60
2023/07/29 01:47:51;;;;;;;1.20;0.20;;;;;;;19.39;84.09;99571.83;84394;282;23733;-60
2023/07/29 01:49:53;;;;;;;1.10;0.40;;;;;;;19.38;84.17;99570.79;84262;282;138146;-62
2023/07/29 01:51:55;;;;;;;1.70;0.60;;;;;;;19.37;84.29;99575.48;84167;284;22941;-60
2023/07/29 01:53:58;;;;;;;0.70;0.50;;;;;;;19.36;84.50;99575.91;84310;282;136626;-63
2023/07/29 01:56:02;;;;;;;0.80;0.80;;;;;;;19.37;84.77;99572.14;84236;283;22604;-60
2023/07/29 01:58:04;;;;;;;2.50;1.00;;;;;;;19.39;84.51;99571.83;84328;283;22576;-59
2023/07/29 02:00:10;;;;;;;2.80;2.00;;;;;;;19.38;84.52;99576.58;84307;277;136987;-61
2023/07/29 02:02:20;;;;;;;1.80;0.70;;;;;;;19.38;84.83;99576.73;84207;282;26313;-61
2023/07/29 02:04:22;;;;;;;1.20;0.90;;;;;;;19.39;84.97;99579.94;84292;281;136277;-67
2023/07/29 02:06:24;;;;;;;2.60;1.00;;;;;;;19.42;84.82;99582.70;84412;281;24126;-60
2023/07/29 02:08:26;;;;;;;1.10;1.10;;;;;;;19.46;84.76;99586.55;84447;282;136087;-62
2023/07/29 02:10:28;;;;;;;1.50;0.60;;;;;;;19.48;84.56;99590.44;84184;283;24267;-59
2023/07/29 02:12:30;;;;;;;0.50;0.50;;;;;;;19.48;84.52;99589.08;84138;272;136412;-60
2023/07/29 02:14:31;;;;;;;0.70;0.70;;;;;;;19.46;84.68;99585.73;84300;281;25145;-59
2023/07/29 02:16:34;;;;;;;1.40;0.60;;;;;;;19.53;84.68;99590.67;84207;282;137239;-62
2023/07/29 02:18:37;;;;;;;1.30;0.80;;;;;;;19.67;83.98;99589.85;84219;283;25252;-60
2023/07/29 02:20:39;;;;;;;0.90;0.40;;;;;;;19.73;83.39;99586.52;84251;278;137824;-61
2023/07/29 02:22:41;;;;;;;0.80;0.80;;;;;;;19.72;83.01;99587.06;84200;283;23731;-64
2023/07/29 02:24:45;;;;;;;2.30;0.60;;;;;;;19.68;83.32;99585.85;84291;282;138023;-61
2023/07/29 02:26:46;;;;;;;2.10;1.00;;;;;;;19.70;83.23;99584.88;84150;283;22549;-61
2023/07/29 02:28:48;;;;;;;3.30;0.90;;;;;;;19.69;83.45;99585.16;84163;281;136230;-58
2023/07/29 02:31:20;;;;;;;3.90;0.70;;;;;;;19.66;83.16;99581.36;84405;281;24482;-60
2023/07/29 02:33:22;;;;;;;1.00;0.80;;;;;;;19.58;83.63;99578.09;84319;283;136351;-60
2023/07/29 02:35:24;;;;;;;0.60;0.50;;;;;;;19.51;84.18;99581.86;84212;283;22557;-60
2023/07/29 02:37:26;;;;;;;0.80;0.70;;;;;;;19.48;84.38;99582.91;84230;282;136962;-61
2023/07/29 02:39:28;;;;;;;1.20;0.70;;;;;;;19.46;84.38;99579.58;84323;282;24099;-62
2023/07/29 02:41:30;;;;;;;1.20;0.50;;;;;;;19.43;84.55;99580.91;84240;281;138192;-62
2023/07/29 02:43:32;;;;;;;5.70;0.90;;;;;;;19.43;84.76;99580.91;84121;279;22558;-60
2023/07/29 02:45:33;;;;;;;1.00;0.50;;;;;;;19.46;84.72;99581.45;84069;281;137202;-60
2023/07/29 02:47:37;;;;;;;1.10;0.90;;;;;;;19.50;84.78;99584.50;84097;283;22603;-62
2023/07/29 02:49:39;;;;;;;0.70;0.60;;;;;;;19.52;84.53;99587.64;84109;283;137138;-62
2023/07/29 02:51:43;;;;;;;0.70;0.70;;;;;;;19.51;84.45;99593.54;84208;281;22571;-60
2023/07/29 02:53:46;;;;;;;0.90;0.50;;;;;;;19.45;84.69;99592.21;84054;283;136830;-57
2023/07/29 02:55:48;;;;;;;2.30;0.80;;;;;;;19.41;85.22;99594.41;84338;282;25267;-61
2023/07/29 02:57:50;;;;;;;1.00;0.80;;;;;;;19.37;85.20;99593.05;84303;282;137682;-62
2023/07/29 02:59:52;;;;;;;1.10;0.70;;;;;;;19.34;85.52;99590.61;84141;283;22682;-62
2023/07/29 03:01:53;;;;;;;0.70;0.60;;;;;;;19.37;85.18;99588.88;84122;283;136583;-62
2023/07/29 03:03:55;;;;;;;1.70;0.70;;;;;;;19.41;85.06;99587.82;84255;281;22574;-65
2023/07/29 03:06:02;;;;;;;2.50;0.60;;;;;;;19.44;84.87;99586.23;84280;283;137432;-60
2023/07/29 03:08:04;;;;;;;0.80;0.80;;;;;;;19.47;84.94;99587.09;84274;283;139003;-62
2023/07/29 03:10:06;;;;;;;0.70;0.60;;;;;;;19.47;84.84;99585.58;84321;271;23136;-61
2023/07/29 03:12:08;;;;;;;2.30;1.00;;;;;;;19.49;85.07;99588.88;84109;282;137231;-65
2023/07/29 03:14:10;;;;;;;2.80;2.50;;;;;;;19.50;85.21;99591.48;84280;282;25248;-58
2023/07/29 03:16:14;;;;;;;2.30;2.20;;;;;;;19.53;85.30;99596.52;84051;282;137201;-59
2023/07/29 03:18:22;;;;;;;1.20;1.20;;;;;;;19.58;84.92;99593.50;84235;271;22548;-64
2023/07/29 03:20:25;;;;;;;4.30;4.00;;;;;;;19.61;84.71;99595.13;84162;271;137636;-61
2023/07/29 03:22:27;;;;;;;2.80;1.70;;;;;;;19.63;84.63;99600.05;84356;282;22660;-59
2023/07/29 03:24:29;;;;;;;1.40;1.30;;;;;;;19.63;84.45;99598.11;84284;281;136250;-60
2023/07/29 03:26:31;;;;;;;1.00;0.80;;;;;;;19.61;84.65;99596.26;84307;283;22546;-61
2023/07/29 03:28:33;;;;;;;0.50;0.50;;;;;;;19.58;85.02;99598.30;84206;282;137201;-61
2023/07/29 03:30:35;;;;;;;3.80;2.80;;;;;;;19.54;85.19;99605.55;84193;283;22658;-61
2023/07/29 03:32:40;;;;;;;3.00;1.90;;;;;;;19.55;85.20;99607.23;84202;284;136283;-61
2023/07/29 03:34:43;;;;;;;9.30;5.60;;;;;;;19.59;85.34;99609.34;84387;283;22587;-62
2023/07/29 03:36:47;;;;;;;5.10;4.70;;;;;;;19.62;85.32;99605.99;84246;283;137280;-72
2023/07/29 03:38:49;;;;;;;6.60;4.20;;;;;;;19.63;85.08;99606.11;84266;282;25182;-61
2023/07/29 03:40:51;;;;;;;5.20;4.20;;;;;;;19.64;84.90;99600.38;84160;282;136709;-64
2023/07/29 03:42:53;;;;;;;1.70;1.60;;;;;;;19.65;84.72;99608.11;84243;282;22553;-61
2023/07/29 03:44:55;;;;;;;4.10;3.80;;;;;;;19.71;84.81;99606.58;84092;283;136419;-63
2023/07/29 03:46:56;;;;;;;1.70;1.50;;;;;;;19.77;84.75;99606.23;84414;282;22549;-63
2023/07/29 03:48:58;;;;;;;4.20;2.80;;;;;;;19.83;84.83;99605.38;84240;281;136284;-61
2023/07/29 03:51:02;;;;;;;3.40;3.20;;;;;;;19.86;85.55;99607.60;84287;283;22550;-62
2023/07/29 03:53:04;;;;;;;2.50;1.60;;;;;;;19.95;85.51;99606.42;84258;282;136298;-62
2023/07/29 03:55:07;;;;;;;2.50;2.30;;;;;;;20.02;84.00;99608.98;84352;281;22573;-63
2023/07/29 03:57:09;;;;;;;5.10;1.20;;;;;;;20.14;83.44;99608.83;84230;282;135826;-61
2023/07/29 03:59:10;;;;;;;2.30;1.30;;;;;;;20.22;82.23;99609.21;84315;282;25227;-59
2023/07/29 04:01:13;;;;;;;1.80;1.00;;;;;;;20.22;81.62;99610.14;84169;282;136454;-63
2023/07/29 04:03:15;;;;;;;1.50;0.80;;;;;;;20.20;81.89;99612.95;84162;283;22770;-65
2023/07/29 04:05:18;;;;;;;2.90;1.50;;;;;;;20.17;82.12;99614.84;84059;259;138153;-62
2023/07/29 04:07:20;;;;;;;2.90;1.20;;;;;;;20.10;82.44;99613.76;84069;283;22543;-64
2023/07/29 04:09:23;;;;;;;1.40;1.20;;;;;;;20.03;83.20;99611.75;84183;281;137130;-59
2023/07/29 04:11:25;;;;;;;2.60;1.70;;;;;;;20.00;83.73;99613.48;84129;283;22561;-59
2023/07/29 04:13:27;;;;;;;5.50;2.60;;;;;;;20.06;84.15;99609.91;84014;283;135804;-63
2023/07/29 04:15:30;;;;;;;4.50;2.10;;;;;;;20.11;84.20;99608.71;84270;282;22625;-62
2023/07/29 04:17:34;;;;;;;1.70;1.30;;;;;;;20.16;83.47;99600.92;84195;282;137124;-59
2023/07/29 04:19:37;;;;;;;3.20;3.10;;;;;;;20.32;83.18;99615.27;84360;281;22680;-69
2023/07/29 04:21:38;;;;;;;5.70;5.20;;;;;;;20.40;82.96;99617.06;84326;281;137621;-60
2023/07/29 04:23:43;;;;;;;4.50;4.20;;;;;;;20.57;82.62;99613.45;84168;283;22590;-63
2023/07/29 04:25:44;;;;;;;1.60;1.50;;;;;;;20.85;81.40;99613.80;84155;281;137174;-63
2023/07/29 04:27:46;;;;;;;3.80;1.80;;;;;;;21.31;80.00;99613.35;84383;281;22563;-65
2023/07/29 04:29:48;;;;;;;1.70;0.90;;;;;;;21.80;77.48;99611.55;84315;281;136818;-68
2023/07/29 04:31:50;;;;;;;1.00;0.80;;;;;;;22.13;75.64;99614.70;84483;281;23671;-61
2023/07/29 04:33:52;;;;;;;0.60;0.60;;;;;;;22.46;74.26;99617.52;84458;281;136943;-60
2023/07/29 04:35:54;;;;;;;3.70;1.10;;;;;;;22.88;71.50;99617.66;84200;281;22638;-61
2023/07/29 04:37:55;;;;;;;1.70;1.20;;;;;;;23.28;69.96;99612.95;84136;283;135621;-59
2023/07/29 04:39:57;;;;;;;1.50;1.10;;;;;;;23.55;68.28;99615.92;84368;282;22560;-60
2023/07/29 04:42:00;;;;;;;1.00;1.00;;;;;;;23.73;67.24;99616.13;84153;282;137630;-58
2023/07/29 04:44:02;;;;;;;0.80;0.60;;;;;;;23.77;66.17;99621.08;84298;282;22564;-58
2023/07/29 04:46:08;;;;;;;0.90;0.90;;;;;;;23.88;65.68;99619.25;84360;281;22655;-69
2023/07/29 04:48:10;;;;;;;2.60;0.70;;;;;;;24.11;65.76;99619.14;84153;283;136625;-66
2023/07/29 04:50:12;;;;;;;0.70;0.70;;;;;;;24.46;64.11;99613.17;84287;281;22673;-64
2023/07/29 04:52:15;;;;;;;1.10;0.90;;;;;;;24.84;62.26;99614.23;84088;281;136744;-61
2023/07/29 04:54:17;;;;;;;1.00;0.70;;;;;;;25.16;60.80;99610.79;84083;283;25302;-61
2023/07/29 04:56:19;;;;;;;0.90;0.90;;;;;;;25.43;59.91;99612.38;84047;282;136427;-64
2023/07/29 04:58:20;;;;;;;0.90;0.60;;;;;;;25.76;59.15;99611.05;84258;282;23717;-63
2023/07/29 05:00:22;;;;;;;5.10;0.70;;;;;;;26.09;57.29;99610.61;84111;282;136420;-68
2023/07/29 05:02:24;;;;;;;2.00;0.90;;;;;;;26.24;56.41;99611.30;84161;283;22499;-63
2023/07/29 05:04:26;;;;;;;1.60;0.60;;;;;;;26.23;57.00;99611.36;84155;281;136091;-62
2023/07/29 05:06:28;;;;;;;1.00;0.50;;;;;;;26.33;56.87;99613.86;84294;281;22543;-67
2023/07/29 05:08:31;;;;;;;2.80;0.50;;;;;;;26.48;55.60;99611.36;84155;281;136297;-65
2023/07/29 05:10:34;;;;;;;0.80;0.40;;;;;;;26.57;55.25;99610.82;84238;281;22892;-63
2023/07/29 05:12:36;;;;;;;1.10;0.80;;;;;;;26.63;54.60;99608.40;84057;283;136144;-65
2023/07/29 05:14:38;;;;;;;2.90;0.50;;;;;;;26.58;55.35;99598.06;84166;283;22655;-64
2023/07/29 05:16:40;;;;;;;1.00;0.50;;;;;;;26.66;53.94;99608.95;84040;283;136862;-64
2023/07/29 05:18:42;;;;;;;1.10;0.40;;;;;;;26.50;55.08;99601.79;84250;281;22715;-65
2023/07/29 05:20:44;;;;;;;1.10;0.80;;;;;;;26.59;55.20;99602.79;84104;282;136241;-65
2023/07/29 05:22:45;;;;;;;0.60;0.40;;;;;;;26.68;54.03;99599.83;84269;282;22808;-65
2023/07/29 05:24:47;;;;;;;0.70;0.50;;;;;;;26.64;54.52;99600.98;84138;281;136332;-69
2023/07/29 05:26:49;;;;;;;1.80;0.50;;;;;;;26.62;54.00;99599.92;84206;282;24137;-62
2023/07/29 05:28:51;;;;;;;0.50;0.50;;;;;;;26.39;54.53;99598.09;84046;283;136370;-65
2023/07/29 05:30:53;;;;;;;1.10;0.40;;;;;;;26.07;55.76;99599.90;84275;282;22647;-63
2023/07/29 05:32:55;;;;;;;1.20;0.20;;;;;;;25.80;56.57;99597.66;84044;283;137589;-62
2023/07/29 05:34:57;;;;;;;0.20;0.20;;;;;;;25.50;56.39;99598.45;84290;282;22486;-62
2023/07/29 05:37:57;;;;;;;0.50;0.20;;;;;;;24.79;58.58;99593.77;82642;309;545601;-63
2023/07/29 05:39:59;;;;;;;0.60;0.20;;;;;;;24.30;59.90;99601.19;83437;298;22830;-61
2023/07/29 05:42:02;;;;;;;0.20;0.20;;;;;;;23.88;60.88;99604.93;83496;297;135835;-63
2023/07/29 05:44:05;;;;;;;0.30;0.30;;;;;;;23.44;62.92;99604.64;83737;290;136160;-61
2023/07/29 05:46:10;;;;;;;0.90;0.30;;;;;;;23.05;65.38;99609.50;83839;288;24105;-64
2023/07/29 05:48:12;;;;;;;0.30;0.30;;;;;;;22.73;66.71;99614.49;84015;289;135823;-62
2023/07/29 05:50:13;;;;;;;1.40;0.40;;;;;;;22.49;69.15;99620.05;84058;288;22650;-61
2023/07/29 05:52:19;;;;;;;0.60;0.40;;;;;;;22.26;70.63;99621.73;83665;288;381629;-61
2023/07/29 05:54:21;;;;;;;1.70;1.60;;;;;;;22.00;71.92;99613.55;84257;286;25258;-62
2023/07/29 05:56:23;;;;;;;0.50;0.40;;;;;;;21.79;73.28;99616.06;83877;286;137617;-64
2023/07/29 05:58:26;;;;;;;0.60;0.30;;;;;;;21.65;74.88;99620.05;83977;286;22549;-62
2023/07/29 06:00:28;;;;;;;3.70;1.40;;;;;;;21.55;75.54;99618.31;83800;286;137346;-65
2023/07/29 06:02:30;;;;;;;0.80;0.60;;;;;;;21.50;77.00;99615.13;83978;288;22551;-62
2023/07/29 06:04:31;;;;;;;1.20;0.60;;;;;;;21.40;77.25;99613.73;83959;286;136976;-63
2023/07/29 06:06:34;;;;;;;1.70;0.60;;;;;;;21.30;78.17;99616.45;84234;288;23223;-62
2023/07/29 06:08:36;;;;;;;0.30;0.30;;;;;;;21.26;78.26;99613.14;83968;286;137124;-63
2023/07/29 06:10:38;;;;;;;0.90;0.80;;;;;;;21.38;78.81;99609.73;84034;287;25451;-68
2023/07/29 06:12:40;;;;;;;0.30;0.30;;;;;;;21.68;78.02;99615.64;83754;287;136500;-61
2023/07/29 06:14:42;;;;;;;1.60;0.40;;;;;;;22.06;76.17;99616.33;84050;287;25192;-65
2023/07/29 06:16:44;;;;;;;0.30;0.30;;;;;;;22.47;73.49;99618.44;83952;287;135915;-64
2023/07/29 06:18:47;;;;;;;0.40;0.40;;;;;;;22.77;71.97;99618.73;83951;288;22571;-61
2023/07/29 06:20:49;;;;;;;0.60;0.30;;;;;;;23.05;70.50;99611.90;84049;288;135682;-63
2023/07/29 06:22:51;;;;;;;0.80;0.20;;;;;;;23.22;69.14;99600.29;84039;288;22637;-61
2023/07/29 06:24:53;;;;;;;0.40;0.30;;;;;;;23.49;67.90;99608.34;83929;288;136132;-62
2023/07/29 06:26:55;;;;;;;0.50;0.50;;;;;;;23.72;68.11;99609.83;84072;287;25277;-66
2023/07/29 06:28:56;;;;;;;0.20;0.10;;;;;;;24.07;65.73;99607.71;83849;287;135806;-60
2023/07/29 06:30:58;;;;;;;0.30;0.30;;;;;;;24.30;64.33;99604.99;83947;288;24210;-63
2023/07/29 06:33:00;;;;;;;1.30;0.20;;;;;;;24.43;63.78;99606.42;83880;287;135961;-65
2023/07/29 06:35:02;;;;;;;0.30;0.20;;;;;;;24.63;62.61;99607.02;84055;286;23781;-64
2023/07/29 06:37:04;;;;;;;0.20;0.10;;;;;;;24.84;61.33;99609.05;84044;286;135710;-65
2023/07/29 06:39:08;;;;;;;1.10;0.30;;;;;;;24.89;61.31;99606.82;84015;279;22603;-64
2023/07/29 06:41:10;;;;;;;0.40;0.20;;;;;;;24.99;61.98;99600.80;83877;286;135981;-62
2023/07/29 06:43:15;;;;;;;0.30;0.20;;;;;;;25.15;61.97;99607.33;83981;286;25158;-65
2023/07/29 06:45:17;;;;;;;1.20;0.30;;;;;;;25.36;61.41;99604.09;83901;287;136163;-61
2023/07/29 06:47:19;;;;;;;0.40;0.30;;;;;;;25.59;60.44;99601.68;83924;287;25207;-70
2023/07/29 06:49:21;;;;;;;0.30;0.20;;;;;;;25.76;58.99;99596.67;83895;287;135981;-60
2023/07/29 06:51:23;;;;;;;0.20;0.20;;;;;;;25.72;59.01;99582.98;83932;287;24033;-59
2023/07/29 06:53:25;;;;;;;0.40;0.30;;;;;;;25.81;58.75;99592.58;83827;287;135934;-64
2023/07/29 06:55:27;;;;;;;1.90;0.50;;;;;;;25.84;59.17;99590.25;83986;287;22666;-65
2023/07/29 06:57:28;;;;;;;1.60;0.30;;;;;;;25.84;58.92;99593.14;83914;287;135817;-62
2023/07/29 06:59:30;;;;;;;0.40;0.30;;;;;;;25.87;58.29;99592.71;83986;287;22566;-63
2023/07/29 07:01:32;;;;;;;1.20;0.50;;;;;;;25.84;57.98;99590.58;83868;287;138232;-63
2023/07/29 07:03:34;;;;;;;2.10;0.80;;;;;;;25.87;58.38;99591.17;83918;288;25241;-65
2023/07/29 07:05:36;;;;;;;0.50;0.30;;;;;;;25.93;58.08;99593.80;83823;287;137159;-65
2023/07/29 07:07:38;;;;;;;0.50;0.40;;;;;;;25.97;58.69;99593.31;83927;287;25224;-63
2023/07/29 07:09:40;;;;;;;0.50;0.40;;;;;;;26.05;57.26;99595.32;83947;287;136000;-66
2023/07/29 07:11:42;;;;;;;0.50;0.40;;;;;;;26.10;58.05;99598.31;84070;284;22631;-63
2023/07/29 07:13:43;;;;;;;1.10;0.60;;;;;;;26.16;57.13;99598.20;84118;284;135984;-66
2023/07/29 07:15:45;;;;;;;0.50;0.50;;;;;;;26.31;56.92;99601.23;84161;283;24182;-70
2023/07/29 07:17:47;;;;;;;1.70;0.50;;;;;;;26.40;56.53;99603.17;84087;284;135731;-63
2023/07/29 07:19:49;;;;;;;0.50;0.40;;;;;;;26.51;56.48;99604.98;84200;273;22552;-61
2023/07/29 07:21:51;;;;;;;2.30;0.30;;;;;;;26.62;56.20;99602.72;84283;285;137522;-70
2023/07/29 07:23:53;;;;;;;0.40;0.40;;;;;;;26.70;55.85;99605.08;84008;284;24204;-62
2023/07/29 07:25:55;;;;;;;1.00;0.60;;;;;;;26.70;55.85;99603.13;84030;285;136261;-63
2023/07/29 07:27:56;;;;;;;0.60;0.40;;;;;;;26.68;55.22;99608.86;84115;285;22631;-66
2023/07/29 07:29:58;;;;;;;2.20;0.20;;;;;;;26.64;54.79;99601.42;84075;284;135626;-65
2023/07/29 07:32:00;;;;;;;2.20;0.50;;;;;;;26.53;54.94;99602.10;84139;285;22681;-64
2023/07/29 07:34:02;;;;;;;3.60;0.40;;;;;;;26.43;56.09;99598.86;83956;285;137324;-62
2023/07/29 07:36:04;;;;;;;0.50;0.20;;;;;;;26.33;56.48;99597.04;83971;285;136156;-63
2023/07/29 07:38:07;;;;;;;0.30;0.20;;;;;;;26.13;56.49;99597.15;84161;284;24196;-66
2023/07/29 07:40:10;;;;;;;0.30;0.20;;;;;;;25.88;57.15;99599.72;84052;284;137261;-65
2023/07/29 07:42:13;;;;;;;0.30;0.20;;;;;;;25.58;57.68;99598.87;84175;285;22603;-63
2023/07/29 07:44:17;;;;;;;1.00;0.40;;;;;;;25.29;59.68;99595.27;83910;285;137312;-63
2023/07/29 07:46:19;;;;;;;1.40;0.30;;;;;;;25.09;60.45;99592.49;84189;284;25378;-63
2023/07/29 07:48:21;;;;;;;1.00;0.20;;;;;;;24.92;60.97;99590.98;83970;284;137284;-64
2023/07/29 07:50:24;;;;;;;0.40;0.30;;;;;;;24.79;61.67;99586.09;84171;284;25212;-64
2023/07/29 07:52:26;;;;;;;2.10;0.40;;;;;;;24.74;62.78;99584.66;84083;284;135924;-61
2023/07/29 07:54:28;;;;;;;0.40;0.40;;;;;;;24.74;63.00;99582.96;84200;284;22556;-65
2023/07/29 07:56:30;;;;;;;0.60;0.40;;;;;;;24.68;63.32;99580.58;84022;284;135752;-61
2023/07/29 07:58:33;;;;;;;0.70;0.60;;;;;;;24.60;64.15;99585.34;84159;285;22585;-66
2023/07/29 08:00:34;;;;;;;0.70;0.50;;;;;;;24.51;64.20;99584.45;84023;284;135930;-62
2023/07/29 08:02:36;;;;;;;0.70;0.70;;;;;;;24.47;64.82;99586.20;84003;284;24151;-61
2023/07/29 08:04:39;;;;;;;0.90;0.60;;;;;;;24.52;65.67;99585.41;83960;284;136026;-64
2023/07/29 08:06:41;;;;;;;0.50;0.50;;;;;;;24.63;65.34;99583.75;84009;284;22623;-64
2023/07/29 08:08:43;;;;;;;0.50;0.40;;;;;;;24.70;64.86;99586.15;84070;281;137294;-66
2023/07/29 08:10:44;;;;;;;2.00;0.50;;;;;;;24.71;64.57;99591.74;84045;285;22606;-58
2023/07/29 08:12:46;;;;;;;0.60;0.60;;;;;;;24.72;65.03;99591.95;83925;285;135746;-64
2023/07/29 08:14:48;;;;;;;0.50;0.40;;;;;;;24.72;65.48;99592.55;84048;285;25233;-65
2023/07/29 08:16:51;;;;;;;0.70;0.70;;;;;;;24.73;66.37;99593.79;83998;285;135934;-67
2023/07/29 08:18:52;;;;;;;2.30;0.50;;;;;;;24.74;65.58;99594.19;84069;285;24100;-64
2023/07/29 08:20:57;;;;;;;0.70;0.70;;;;;;;24.75;65.62;99594.88;83926;284;135543;-60
2023/07/29 08:22:59;;;;;;;2.30;1.20;;;;;;;24.75;65.79;99588.39;84133;284;22565;-61
2023/07/29 08:25:01;;;;;;;1.30;0.70;;;;;;;24.78;65.55;99590.29;84044;284;136030;-70
2023/07/29 08:27:03;;;;;;;1.60;1.40;;;;;;;24.84;65.19;99584.69;84168;284;22554;-64
2023/07/29 08:29:05;;;;;;;2.20;0.70;;;;;;;24.92;65.49;99586.62;84108;285;137107;-61
2023/07/29 08:31:07;;;;;;;0.80;0.80;;;;;;;25.06;65.19;99585.51;84012;285;22551;-59
2023/07/29 08:33:10;;;;;;;0.80;0.80;;;;;;;25.19;64.70;99585.30;84152;285;136154;-62
2023/07/29 08:35:12;;;;;;;2.00;0.70;;;;;;;25.28;64.22;99583.59;84147;284;26231;-64
2023/07/29 08:37:14;;;;;;;1.30;1.20;;;;;;;25.34;64.54;99584.32;84123;285;137742;-63
2023/07/29 08:39:16;;;;;;;2.40;0.60;;;;;;;25.39;64.57;99586.59;84122;285;22651;-64
2023/07/29 08:41:36;;;;;;;1.10;0.80;;;;;;;25.44;64.27;99583.02;84110;285;135823;-63
2023/07/29 08:43:41;;;;;;;1.50;0.80;;;;;;;25.46;63.88;99577.08;84172;284;25205;-64
2023/07/29 08:45:44;;;;;;;0.60;0.60;;;;;;;25.49;63.77;99576.73;83956;284;135699;-61
2023/07/29 08:47:49;;;;;;;0.90;0.50;;;;;;;25.51;64.43;99574.03;84121;284;25138;-62
2023/07/29 08:49:54;;;;;;;1.00;0.50;;;;;;;25.49;64.82;99573.75;84201;284;135872;-65
2023/07/29 08:51:57;;;;;;;0.70;0.50;;;;;;;25.48;64.43;99567.48;84153;284;22615;-66
2023/07/29 08:54:01;;;;;;;1.80;0.80;;;;;;;25.50;64.09;99571.93;84119;285;135736;-62
2023/07/29 08:56:05;;;;;;;2.30;0.60;;;;;;;25.52;64.26;99570.27;86654;285;136947;-64
2023/07/29 08:58:06;;;;;;;1.90;0.90;;;;;;;25.57;63.86;99570.29;86818;285;22356;-63
2023/07/29 09:00:09;;;;;;;1.00;0.50;;;;;;;25.61;63.67;99567.64;86669;284;136910;-65
2023/07/29 09:02:11;;;;;;;2.20;0.50;;;;;;;25.62;63.59;99563.80;86682;285;22269;-66
2023/07/29 09:04:13;;;;;;;1.90;0.60;;;;;;;25.64;63.38;99568.88;86738;284;136853;-64
2023/07/29 09:06:16;;;;;;;1.40;0.40;;;;;;;25.70;63.44;99568.36;86707;286;22231;-64
2023/07/29 09:08:18;;;;;;;0.40;0.40;;;;;;;25.70;62.86;99566.73;85119;284;136308;-63
2023/07/29 09:10:23;;;;;;;1.90;0.50;;;;;;;25.59;62.60;99567.56;84103;284;22581;-62
2023/07/29 09:12:24;;;;;;;0.90;0.80;;;;;;;25.47;62.95;99568.54;84125;285;134976;-63
2023/07/29 09:14:28;;;;;;;1.60;1.50;;;;;;;25.40;63.75;99567.01;84052;285;24097;-63
2023/07/29 09:16:30;;;;;;;0.50;0.50;;;;;;;25.35;63.80;99567.70;84076;284;136225;-59
2023/07/29 09:18:32;;;;;;;0.70;0.60;;;;;;;25.24;64.99;99557.52;84199;284;22539;-68
2023/07/29 09:20:34;;;;;;;1.20;0.80;;;;;;;25.30;65.01;99566.02;84011;284;136216;-64
2023/07/29 09:22:36;;;;;;;0.70;0.70;;;;;;;25.32;64.76;99557.67;83980;285;22591;-63
2023/07/29 09:24:38;;;;;;;2.10;1.30;;;;;;;25.34;64.91;99554.64;84072;285;140260;-59
2023/07/29 09:26:48;;;;;;;0.80;0.80;;;;;;;25.36;64.60;99552.20;83940;285;24046;-64
2023/07/29 09:28:56;;;;;;;0.50;0.50;;;;;;;25.39;65.30;99550.61;83910;284;136262;-61
2023/07/29 09:30:59;;;;;;;3.50;0.60;;;;;;;25.41;65.09;99548.32;84100;284;22726;-66
2023/07/29 09:33:01;;;;;;;1.80;0.80;;;;;;;25.39;64.67;99545.55;84084;285;136423;-63
2023/07/29 09:35:11;;;;;;;1.40;1.00;;;;;;;25.32;64.62;99551.03;84128;285;22553;-66
2023/07/29 09:37:17;;;;;;;1.00;0.50;;;;;;;25.25;64.54;99559.58;84155;285;135035;-64
2023/07/29 09:39:23;;;;;;;1.10;1.10;;;;;;;25.22;64.85;99560.92;84321;285;24259;-63
2023/07/29 09:41:32;;;;;;;1.00;0.60;;;;;;;25.25;65.19;99562.48;84057;285;136264;-65
2023/07/29 09:43:35;;;;;;;0.90;0.70;;;;;;;25.24;65.77;99565.20;84140;285;22732;-64